Time;durP1;ratioP1;P1;durP2;ratioP2;P2;SDS_P1;SDS_P2;PMS_P1;PMS_P2;Temp;Humidity;BMP_temperature;BMP_pressure;BME280_temperature;BME280_humidity;BME280_pressure;Samples;Min_cycle;Max_cycle;Signal;HPM_P1;HPM_P2
2023/09/14 00:02:25;;;;;;;3.40;1.80;;;15.30;99.90;;;;;;5246206;28;20206;-49
2023/09/14 00:04:56;;;;;;;2.07;1.90;;;15.30;99.90;;;;;;5244421;28;20177;-49
2023/09/14 00:07:27;;;;;;;3.00;2.00;;;15.30;99.90;;;;;;5259609;28;20915;-48
2023/09/14 00:09:58;;;;;;;2.60;1.93;;;15.40;99.90;;;;;;5242202;28;20587;-49
2023/09/14 00:12:29;;;;;;;3.50;2.10;;;15.40;99.90;;;;;;5226041;28;20197;-48
2023/09/14 00:15:00;;;;;;;2.47;2.10;;;15.40;99.90;;;;;;5245552;28;20943;-48
2023/09/14 00:17:31;;;;;;;3.00;2.70;;;15.30;99.90;;;;;;5238027;28;20439;-49
2023/09/14 00:20:03;;;;;;;2.80;1.80;;;15.40;99.90;;;;;;5256774;28;20603;-49
2023/09/14 00:22:34;;;;;;;4.17;2.47;;;15.40;99.90;;;;;;5261237;28;20205;-48
2023/09/14 00:25:06;;;;;;;3.17;2.07;;;15.40;99.90;;;;;;5264124;28;21415;-48
2023/09/14 00:27:37;;;;;;;6.27;2.13;;;15.20;99.90;;;;;;5242512;28;20459;-51
2023/09/14 00:30:08;;;;;;;2.10;2.00;;;15.40;99.90;;;;;;5237218;28;20471;-49
2023/09/14 00:32:40;;;;;;;2.10;2.00;;;15.20;99.90;;;;;;5243793;28;20210;-48
2023/09/14 00:35:12;;;;;;;3.43;2.07;;;15.20;99.90;;;;;;5241639;28;20435;-48
2023/09/14 00:37:42;;;;;;;3.33;2.50;;;15.20;99.90;;;;;;5259068;28;20454;-50
2023/09/14 00:40:14;;;;;;;1.77;1.67;;;15.20;99.90;;;;;;5240811;28;20456;-48
2023/09/14 00:42:51;;;;;;;2.60;2.17;;;15.20;99.90;;;;;;5243928;28;20213;-50
2023/09/14 00:45:22;;;;;;;2.63;2.43;;;15.20;99.90;;;;;;5253021;28;20432;-49
2023/09/14 00:47:57;;;;;;;4.17;2.37;;;15.20;99.90;;;;;;5263705;28;20439;-50
2023/09/14 00:50:29;;;;;;;6.00;2.80;;;15.20;99.90;;;;;;5245704;28;20526;-48
2023/09/14 00:53:10;;;;;;;2.47;2.27;;;15.20;99.90;;;;;;5244366;28;21007;-50
2023/09/14 00:55:43;;;;;;;6.57;2.53;;;15.20;99.90;;;;;;5240979;28;20483;-49
2023/09/14 00:58:15;;;;;;;3.27;2.83;;;15.10;99.90;;;;;;5263414;28;21916;-49
2023/09/14 01:00:47;;;;;;;1.90;1.83;;;15.20;99.90;;;;;;5254091;28;20482;-48
2023/09/14 01:03:18;;;;;;;2.03;1.93;;;15.10;99.90;;;;;;5236969;28;20467;-49
2023/09/14 01:05:49;;;;;;;8.90;2.80;;;15.10;99.90;;;;;;5245297;28;20435;-48
2023/09/14 01:08:20;;;;;;;2.47;2.13;;;15.10;99.90;;;;;;5260649;28;20193;-49
2023/09/14 01:10:51;;;;;;;3.77;2.53;;;15.10;99.90;;;;;;5241367;28;20939;-49
2023/09/14 01:13:42;;;;;;;4.20;2.50;;;15.00;99.90;;;;;;5257024;28;20292;-50
2023/09/14 01:16:26;;;;;;;5.17;2.30;;;15.00;99.90;;;;;;5249323;28;20439;-50
2023/09/14 01:19:13;;;;;;;4.30;3.10;;;15.00;99.90;;;;;;5262220;28;20907;-49
2023/09/14 01:22:12;;;;;;;5.67;2.20;;;14.90;99.90;;;;;;5244066;28;20456;-48
2023/09/14 01:24:43;;;;;;;2.70;2.20;;;15.00;99.90;;;;;;5247729;28;20501;-48
2023/09/14 01:27:14;;;;;;;6.50;3.00;;;14.80;99.90;;;;;;5243830;28;20531;-48
2023/09/14 01:29:45;;;;;;;2.67;2.43;;;14.80;99.90;;;;;;5261267;28;20189;-49
2023/09/14 01:32:16;;;;;;;2.30;2.10;;;14.80;99.90;;;;;;5258150;28;20455;-48
2023/09/14 01:34:47;;;;;;;6.30;3.03;;;14.80;99.90;;;;;;5266820;28;20427;-48
2023/09/14 01:37:18;;;;;;;3.90;2.20;;;14.70;99.90;;;;;;5239947;28;20435;-48
2023/09/14 01:39:49;;;;;;;7.20;2.93;;;14.70;99.90;;;;;;5249209;28;20205;-48
2023/09/14 01:42:21;;;;;;;5.03;2.83;;;14.70;99.90;;;;;;5229143;28;20547;-49
2023/09/14 01:44:52;;;;;;;4.60;3.17;;;14.70;99.90;;;;;;5247815;28;20178;-48
2023/09/14 01:47:23;;;;;;;2.53;2.37;;;14.70;99.90;;;;;;5226002;28;20437;-48
2023/09/14 01:49:54;;;;;;;10.27;4.07;;;14.60;99.90;;;;;;5221764;28;20462;-54
2023/09/14 01:52:24;;;;;;;9.03;2.70;;;14.60;99.90;;;;;;5248736;28;20210;-50
2023/09/14 01:54:55;;;;;;;6.73;2.00;;;14.60;99.90;;;;;;5225998;28;20196;-49
2023/09/14 01:57:26;;;;;;;12.30;3.00;;;14.50;99.90;;;;;;5247477;28;20235;-48
2023/09/14 01:59:56;;;;;;;4.57;2.60;;;14.50;99.90;;;;;;5267155;28;20206;-48
2023/09/14 02:02:27;;;;;;;4.17;3.53;;;14.40;99.90;;;;;;5255960;28;20213;-50
2023/09/14 02:04:58;;;;;;;5.90;2.40;;;14.30;99.90;;;;;;5258565;28;20181;-48
2023/09/14 02:07:28;;;;;;;5.70;2.27;;;14.20;99.90;;;;;;5245925;28;20177;-48
2023/09/14 02:09:59;;;;;;;2.60;2.40;;;14.10;99.90;;;;;;5264367;28;20189;-49
2023/09/14 02:12:30;;;;;;;5.07;3.37;;;14.10;99.90;;;;;;5264686;28;20254;-49
2023/09/14 02:15:01;;;;;;;3.83;2.80;;;14.00;99.90;;;;;;5261083;28;20182;-48
2023/09/14 02:17:32;;;;;;;3.13;2.70;;;13.90;99.90;;;;;;5260575;28;20185;-48
2023/09/14 02:20:07;;;;;;;13.90;3.23;;;13.90;99.90;;;;;;5263281;28;20190;-47
2023/09/14 02:22:38;;;;;;;2.90;2.70;;;13.80;99.90;;;;;;5257440;28;20459;-49
2023/09/14 02:25:09;;;;;;;7.30;2.90;;;13.70;99.90;;;;;;5223550;28;20433;-47
2023/09/14 02:27:39;;;;;;;3.00;2.73;;;13.70;99.90;;;;;;5258131;28;20179;-47
2023/09/14 02:30:10;;;;;;;2.80;2.50;;;13.70;99.90;;;;;;5239581;28;20177;-49
2023/09/14 02:32:41;;;;;;;4.83;3.00;;;13.70;99.90;;;;;;5242892;28;20558;-48
2023/09/14 02:35:12;;;;;;;3.43;2.77;;;13.60;99.90;;;;;;5257435;28;20459;-49
2023/09/14 02:37:43;;;;;;;6.57;2.57;;;13.60;99.90;;;;;;5262211;28;20595;-49
2023/09/14 02:40:14;;;;;;;3.10;2.80;;;13.60;99.90;;;;;;5244358;28;20333;-48
2023/09/14 02:42:45;;;;;;;11.77;3.27;;;13.60;99.90;;;;;;5246535;28;20504;-50
2023/09/14 02:45:16;;;;;;;3.30;2.90;;;13.60;99.90;;;;;;5243727;28;20182;-48
2023/09/14 02:47:47;;;;;;;3.93;2.50;;;13.40;99.90;;;;;;5254100;28;20466;-47
2023/09/14 02:50:17;;;;;;;8.00;3.00;;;13.40;99.90;;;;;;5256150;28;20178;-47
2023/09/14 02:52:49;;;;;;;3.13;2.87;;;13.20;99.90;;;;;;5228043;28;20210;-48
2023/09/14 02:55:19;;;;;;;5.60;2.80;;;13.20;99.90;;;;;;5262911;28;20216;-48
2023/09/14 02:57:50;;;;;;;4.87;3.00;;;13.10;99.90;;;;;;5246359;28;20432;-49
2023/09/14 03:00:21;;;;;;;4.83;2.90;;;12.90;99.90;;;;;;5262423;28;22109;-48
2023/09/14 03:02:52;;;;;;;3.20;3.00;;;12.90;99.90;;;;;;5263699;28;20657;-48
2023/09/14 03:05:22;;;;;;;5.17;3.33;;;12.90;99.90;;;;;;5243794;28;20177;-48
2023/09/14 03:07:53;;;;;;;3.70;2.90;;;12.80;99.90;;;;;;5238248;28;20178;-49
2023/09/14 03:10:24;;;;;;;9.10;3.13;;;12.70;99.90;;;;;;5245942;28;20211;-50
2023/09/14 03:12:54;;;;;;;6.93;3.53;;;12.70;99.90;;;;;;5239382;28;20228;-48
2023/09/14 03:15:25;;;;;;;4.10;2.83;;;12.70;99.90;;;;;;5259780;28;20563;-48
2023/09/14 03:17:56;;;;;;;2.83;2.70;;;12.70;99.90;;;;;;5259386;28;20190;-48
2023/09/14 03:20:26;;;;;;;3.83;2.93;;;12.70;99.90;;;;;;5242698;28;20640;-48
2023/09/14 03:22:59;;;;;;;4.43;3.17;;;12.70;99.90;;;;;;5262898;28;20197;-49
2023/09/14 03:25:29;;;;;;;3.27;3.07;;;12.70;99.90;;;;;;5260542;28;20184;-51
2023/09/14 03:28:00;;;;;;;3.60;3.23;;;12.60;99.90;;;;;;5258308;28;20511;-49
2023/09/14 03:30:31;;;;;;;5.97;2.93;;;12.60;99.90;;;;;;5259770;28;20174;-48
2023/09/14 03:33:02;;;;;;;3.53;3.17;;;12.50;99.90;;;;;;5247394;28;20194;-48
2023/09/14 03:35:33;;;;;;;3.70;3.37;;;12.60;99.90;;;;;;5261827;28;20426;-49
2023/09/14 03:38:04;;;;;;;7.27;3.70;;;12.60;99.90;;;;;;5227758;28;20186;-48
2023/09/14 03:40:34;;;;;;;4.47;3.30;;;12.60;99.90;;;;;;5268549;28;20577;-49
2023/09/14 03:43:05;;;;;;;4.27;3.20;;;12.50;99.90;;;;;;5262927;28;20742;-48
2023/09/14 03:45:37;;;;;;;11.13;3.40;;;12.50;99.90;;;;;;5226101;28;20174;-49
2023/09/14 03:48:08;;;;;;;3.83;3.50;;;12.40;99.90;;;;;;5245330;28;20551;-47
2023/09/14 03:50:39;;;;;;;4.50;3.57;;;12.40;99.90;;;;;;5259749;28;20472;-48
2023/09/14 03:53:10;;;;;;;8.90;3.83;;;12.40;99.90;;;;;;5213241;28;20251;-48
2023/09/14 03:55:41;;;;;;;5.93;3.50;;;12.40;99.90;;;;;;5263963;28;20590;-50
2023/09/14 03:58:12;;;;;;;5.80;3.50;;;12.30;99.90;;;;;;5241437;28;20471;-51
2023/09/14 04:00:44;;;;;;;5.90;3.20;;;12.30;99.90;;;;;;5239273;28;20448;-50
2023/09/14 04:03:18;;;;;;;9.00;3.40;;;12.30;99.90;;;;;;5241343;28;20213;-48
2023/09/14 04:05:49;;;;;;;3.77;3.47;;;12.30;99.90;;;;;;5249340;28;20428;-49
2023/09/14 04:08:21;;;;;;;3.97;3.00;;;12.20;99.90;;;;;;5255645;28;20537;-47
2023/09/14 04:10:51;;;;;;;4.97;4.03;;;12.20;99.90;;;;;;5239695;28;20174;-48
2023/09/14 04:13:34;;;;;;;7.70;4.37;;;12.20;99.90;;;;;;5244733;28;20914;-50
2023/09/14 04:16:05;;;;;;;10.80;4.20;;;12.20;99.90;;;;;;5260690;28;20771;-48
2023/09/14 04:18:38;;;;;;;9.93;4.37;;;12.20;99.90;;;;;;5256836;28;20426;-47
2023/09/14 04:21:08;;;;;;;6.30;4.23;;;12.10;99.90;;;;;;5263537;28;20427;-48
2023/09/14 04:23:39;;;;;;;5.60;3.30;;;12.10;99.90;;;;;;5243339;28;20438;-48
2023/09/14 04:26:10;;;;;;;11.23;4.50;;;12.10;99.90;;;;;;5239166;28;20188;-48
2023/09/14 04:28:41;;;;;;;4.53;4.00;;;12.10;99.90;;;;;;5243531;28;20171;-49
2023/09/14 04:31:11;;;;;;;10.00;4.43;;;12.10;99.90;;;;;;5252442;28;20182;-49
2023/09/14 04:33:42;;;;;;;6.57;4.00;;;12.10;99.90;;;;;;5239690;28;20260;-48
2023/09/14 04:36:13;;;;;;;8.00;4.53;;;12.10;99.90;;;;;;5263738;28;20646;-49
2023/09/14 04:38:44;;;;;;;6.90;3.97;;;12.10;99.90;;;;;;5254375;28;20588;-48
2023/09/14 04:41:14;;;;;;;5.53;3.60;;;12.00;99.90;;;;;;5244274;28;20189;-49
2023/09/14 04:43:45;;;;;;;11.27;4.37;;;12.10;99.90;;;;;;5262742;28;20284;-48
2023/09/14 04:46:16;;;;;;;7.00;4.33;;;12.10;99.90;;;;;;5262050;28;20178;-49
2023/09/14 04:48:48;;;;;;;7.00;4.50;;;12.10;99.90;;;;;;5245481;28;20519;-48
2023/09/14 04:51:21;;;;;;;8.20;4.40;;;12.10;99.90;;;;;;5229670;28;20237;-48
2023/09/14 04:53:51;;;;;;;5.67;5.00;;;12.10;99.90;;;;;;5228810;28;20428;-49
2023/09/14 04:56:22;;;;;;;6.70;4.33;;;12.10;99.90;;;;;;5230005;28;20424;-49
2023/09/14 04:58:53;;;;;;;5.00;4.50;;;12.20;99.90;;;;;;5259793;28;20588;-49
2023/09/14 05:01:24;;;;;;;4.90;4.13;;;12.20;99.90;;;;;;5263200;28;20209;-49
2023/09/14 05:03:54;;;;;;;5.23;3.70;;;12.30;99.90;;;;;;5241108;28;20178;-49
2023/09/14 05:06:25;;;;;;;5.83;4.60;;;12.30;99.90;;;;;;5259759;28;20174;-48
2023/09/14 05:08:57;;;;;;;5.33;4.20;;;12.30;99.90;;;;;;5246804;28;20194;-49
2023/09/14 05:11:28;;;;;;;6.40;3.87;;;12.30;99.90;;;;;;5255922;28;20206;-49
2023/09/14 05:14:02;;;;;;;11.57;4.80;;;12.30;99.90;;;;;;5263070;28;20437;-49
2023/09/14 05:16:33;;;;;;;7.67;4.97;;;12.30;99.90;;;;;;5243845;28;20201;-49
2023/09/14 05:19:03;;;;;;;11.03;5.30;;;12.30;99.90;;;;;;5262285;28;20455;-49
2023/09/14 05:21:34;;;;;;;5.90;4.57;;;12.40;99.90;;;;;;5269015;28;20198;-48
2023/09/14 05:24:05;;;;;;;6.10;3.93;;;12.40;99.90;;;;;;5248363;28;20188;-50
2023/09/14 05:26:36;;;;;;;5.87;4.43;;;12.50;99.90;;;;;;5243599;28;20358;-50
2023/09/14 05:29:06;;;;;;;5.60;4.27;;;12.50;99.90;;;;;;5243196;28;20186;-49
2023/09/14 05:31:37;;;;;;;9.23;4.37;;;12.60;99.90;;;;;;5257964;28;20217;-49
2023/09/14 05:34:08;;;;;;;7.70;4.57;;;12.60;99.90;;;;;;5254435;28;20170;-50
2023/09/14 05:36:39;;;;;;;5.80;3.33;;;12.70;99.90;;;;;;5244176;28;20177;-50
2023/09/14 05:39:09;;;;;;;4.87;3.57;;;12.70;99.90;;;;;;5223914;28;22337;-49
2023/09/14 05:41:40;;;;;;;4.07;3.73;;;12.80;99.90;;;;;;5262623;28;20221;-51
2023/09/14 05:44:11;;;;;;;7.13;3.87;;;12.80;99.90;;;;;;5258218;28;20182;-49
2023/09/14 05:46:41;;;;;;;5.97;3.97;;;12.80;99.90;;;;;;5262834;28;20210;-49
2023/09/14 05:49:14;;;;;;;5.90;4.10;;;13.00;99.90;;;;;;5260534;28;20217;-50
2023/09/14 05:51:44;;;;;;;4.53;3.33;;;13.00;99.90;;;;;;5261716;28;20475;-51
2023/09/14 05:54:15;;;;;;;5.20;3.80;;;13.10;99.90;;;;;;5257545;28;20173;-49
2023/09/14 05:56:45;;;;;;;4.90;3.40;;;13.30;99.90;;;;;;5242577;28;20170;-50
2023/09/14 05:59:16;;;;;;;6.20;3.43;;;14.60;99.90;;;;;;5248637;28;20198;-49
2023/09/14 06:01:47;;;;;;;4.10;3.40;;;17.40;99.90;;;;;;5259401;28;20202;-51
2023/09/14 06:04:18;;;;;;;2.97;2.70;;;20.10;99.90;;;;;;5241133;28;20184;-50
2023/09/14 06:06:49;;;;;;;8.90;4.37;;;22.30;99.90;;;;;;5247166;28;20180;-51
2023/09/14 06:09:20;;;;;;;5.67;2.90;;;24.00;94.20;;;;;;5233074;28;21027;-51
2023/09/14 06:11:50;;;;;;;2.43;2.23;;;25.10;87.30;;;;;;5236938;28;20746;-52
2023/09/14 06:14:21;;;;;;;4.63;2.90;;;26.30;75.90;;;;;;5244572;28;20598;-53
2023/09/14 06:16:53;;;;;;;2.77;2.57;;;27.20;67.30;;;;;;5261358;28;20231;-51
2023/09/14 06:19:24;;;;;;;7.13;2.90;;;27.80;60.80;;;;;;5258641;28;20452;-50
2023/09/14 06:21:54;;;;;;;2.70;2.60;;;28.10;57.60;;;;;;5242822;28;20505;-51
2023/09/14 06:24:25;;;;;;;3.40;2.90;;;27.90;54.90;;;;;;5261121;28;20234;-52
2023/09/14 06:26:56;;;;;;;8.17;3.23;;;28.10;53.90;;;;;;5245128;28;20269;-52
2023/09/14 06:29:26;;;;;;;4.00;3.10;;;27.90;53.30;;;;;;5259846;28;20190;-51
2023/09/14 06:31:57;;;;;;;4.63;3.23;;;27.70;54.00;;;;;;5257332;28;20208;-52
2023/09/14 06:34:28;;;;;;;9.80;2.90;;;28.30;53.80;;;;;;5263139;28;20182;-51
2023/09/14 06:36:58;;;;;;;3.50;3.10;;;29.00;51.60;;;;;;5256189;28;20514;-52
2023/09/14 06:39:29;;;;;;;3.00;2.50;;;28.60;50.20;;;;;;5256710;28;20201;-52
2023/09/14 06:42:00;;;;;;;7.47;2.63;;;29.10;50.30;;;;;;5259290;28;20693;-52
2023/09/14 06:44:31;;;;;;;3.23;2.83;;;29.40;48.80;;;;;;5260090;28;20236;-51
2023/09/14 06:47:02;;;;;;;4.10;2.80;;;30.00;47.90;;;;;;5242322;28;20974;-51
2023/09/14 06:49:33;;;;;;;5.60;2.67;;;30.20;47.40;;;;;;5257539;28;20874;-51
2023/09/14 06:52:04;;;;;;;2.23;2.00;;;31.00;46.00;;;;;;5262658;28;20474;-51
2023/09/14 06:54:35;;;;;;;6.17;3.00;;;31.30;44.50;;;;;;5265921;28;20185;-51
2023/09/14 06:57:05;;;;;;;13.47;3.17;;;31.80;43.40;;;;;;5254008;28;20434;-51
2023/09/14 06:59:39;;;;;;;5.70;2.60;;;31.80;42.50;;;;;;5228282;28;20205;-52
2023/09/14 07:02:10;;;;;;;2.67;2.47;;;32.30;42.20;;;;;;5255690;28;20201;-50
2023/09/14 07:04:40;;;;;;;2.83;2.20;;;32.70;40.70;;;;;;5223640;28;20436;-53
2023/09/14 07:07:11;;;;;;;2.93;2.63;;;32.90;40.30;;;;;;5255883;28;20261;-51
2023/09/14 07:09:41;;;;;;;3.33;2.67;;;32.90;39.30;;;;;;5259855;28;20181;-52
2023/09/14 07:12:12;;;;;;;3.30;2.17;;;32.70;39.70;;;;;;5247963;28;20630;-51
2023/09/14 07:14:43;;;;;;;7.10;1.97;;;33.20;39.30;;;;;;5238812;28;20297;-52
2023/09/14 07:17:15;;;;;;;5.63;2.50;;;33.30;38.50;;;;;;5245794;28;20190;-52
2023/09/14 07:19:46;;;;;;;2.63;1.93;;;33.20;38.60;;;;;;5254941;28;21931;-51
2023/09/14 07:22:19;;;;;;;4.03;2.10;;;33.40;38.30;;;;;;5257824;28;20448;-51
2023/09/14 07:24:50;;;;;;;2.33;2.13;;;33.00;37.90;;;;;;5257636;28;20253;-50
2023/09/14 07:27:22;;;;;;;2.57;2.00;;;33.10;38.40;;;;;;5242763;28;20500;-51
2023/09/14 07:29:56;;;;;;;2.00;1.90;;;33.50;37.50;;;;;;5225543;28;20511;-52
2023/09/14 07:32:27;;;;;;;3.90;2.07;;;33.60;36.60;;;;;;5245164;28;20550;-52
2023/09/14 07:35:00;;;;;;;7.50;2.00;;;33.50;36.40;;;;;;5255744;28;20522;-51
2023/09/14 07:37:30;;;;;;;2.30;2.10;;;34.00;36.00;;;;;;5240212;28;20245;-53
2023/09/14 07:40:03;;;;;;;2.57;2.37;;;34.10;35.70;;;;;;5258270;28;20467;-53
2023/09/14 07:42:33;;;;;;;2.30;2.20;;;33.70;36.20;;;;;;5239279;28;20274;-53
2023/09/14 07:45:04;;;;;;;2.23;2.03;;;33.50;36.20;;;;;;5257760;28;20467;-53
2023/09/14 07:47:35;;;;;;;1.97;1.87;;;32.90;35.60;;;;;;5239963;28;20182;-52
2023/09/14 07:50:09;;;;;;;2.27;1.43;;;33.00;36.40;;;;;;5258037;28;20530;-52
2023/09/14 07:52:41;;;;;;;5.60;2.47;;;33.20;36.00;;;;;;5257338;28;20674;-51
2023/09/14 07:55:14;;;;;;;3.07;1.40;;;33.30;35.10;;;;;;5216504;28;20462;-50
2023/09/14 07:57:45;;;;;;;2.00;1.47;;;32.70;34.90;;;;;;5238548;28;20432;-51
2023/09/14 08:00:16;;;;;;;3.03;1.80;;;31.60;36.60;;;;;;5244620;28;20467;-51
2023/09/14 08:02:46;;;;;;;2.10;1.60;;;31.30;37.70;;;;;;5235592;28;20565;-50
2023/09/14 08:05:18;;;;;;;2.10;2.00;;;30.30;38.30;;;;;;5257269;28;20178;-51
2023/09/14 08:07:49;;;;;;;2.27;1.33;;;28.20;41.50;;;;;;5236697;28;20179;-51
2023/09/14 08:10:21;;;;;;;2.50;2.30;;;26.60;43.70;;;;;;5232824;28;20510;-52
2023/09/14 08:12:52;;;;;;;1.90;1.80;;;25.00;46.00;;;;;;5249695;28;20245;-51
2023/09/14 08:15:23;;;;;;;6.37;1.97;;;24.50;48.40;;;;;;5257656;28;20479;-50
2023/09/14 08:17:54;;;;;;;15.13;7.70;;;23.90;49.70;;;;;;5257498;28;20852;-50
2023/09/14 08:20:24;;;;;;;3.90;2.10;;;23.50;51.10;;;;;;5244307;28;20205;-50
2023/09/14 08:22:55;;;;;;;3.27;2.10;;;23.20;50.90;;;;;;5256821;28;20224;-49
2023/09/14 08:25:26;;;;;;;4.20;2.00;;;22.70;52.10;;;;;;5256644;28;20180;-49
2023/09/14 08:27:56;;;;;;;3.20;1.50;;;22.10;53.00;;;;;;5262367;28;20256;-50
2023/09/14 08:30:27;;;;;;;3.80;1.90;;;21.00;54.50;;;;;;5252432;28;20602;-50
2023/09/14 08:33:00;;;;;;;4.13;1.70;;;20.60;56.30;;;;;;5247555;28;20882;-49
2023/09/14 08:35:32;;;;;;;2.93;1.50;;;20.10;57.50;;;;;;5234621;28;20319;-51
2023/09/14 08:38:07;;;;;;;5.10;1.43;;;19.60;59.00;;;;;;5260212;28;20443;-51
2023/09/14 08:40:41;;;;;;;1.83;1.60;;;19.30;60.00;;;;;;5249911;28;21220;-50
2023/09/14 08:43:15;;;;;;;1.60;1.50;;;19.30;60.60;;;;;;5261869;28;20459;-49
2023/09/14 08:45:46;;;;;;;4.27;1.67;;;19.20;62.00;;;;;;5242639;28;20444;-51
2023/09/14 08:48:20;;;;;;;6.00;1.40;;;19.30;62.20;;;;;;5234290;28;20439;-50
2023/09/14 08:50:53;;;;;;;2.00;1.70;;;19.30;62.30;;;;;;5237337;28;20523;-49
2023/09/14 08:53:24;;;;;;;3.60;1.13;;;19.50;63.10;;;;;;5239189;28;20476;-51
2023/09/14 08:55:55;;;;;;;4.63;1.87;;;19.60;62.80;;;;;;5257265;28;20435;-50
2023/09/14 08:58:30;;;;;;;4.00;1.60;;;19.70;63.00;;;;;;5255758;28;20513;-51
2023/09/14 09:01:03;;;;;;;7.97;1.60;;;19.70;63.80;;;;;;5259494;28;20269;-50
2023/09/14 09:03:34;;;;;;;3.60;1.77;;;19.60;63.90;;;;;;5212716;28;20797;-51
2023/09/14 09:06:07;;;;;;;3.80;3.00;;;19.50;64.30;;;;;;5260418;28;20445;-49
2023/09/14 09:08:38;;;;;;;4.97;1.73;;;19.30;64.40;;;;;;5261698;28;20180;-50
2023/09/14 09:11:09;;;;;;;2.80;1.83;;;19.20;64.50;;;;;;5258335;28;20432;-49
2023/09/14 09:13:50;;;;;;;2.07;1.87;;;19.20;64.80;;;;;;5239623;28;20436;-51
2023/09/14 09:16:21;;;;;;;8.70;2.40;;;19.40;66.10;;;;;;5236369;28;20221;-50
2023/09/14 09:19:10;;;;;;;3.27;2.17;;;19.60;64.30;;;;;;5233779;28;20539;-49
2023/09/14 09:21:42;;;;;;;4.30;2.73;;;19.60;62.80;;;;;;5259294;28;20197;-49
2023/09/14 09:24:24;;;;;;;3.27;2.10;;;19.60;64.00;;;;;;5258975;28;20947;-50
2023/09/14 09:26:58;;;;;;;4.90;1.63;;;19.70;63.80;;;;;;5256445;28;20557;-50
2023/09/14 09:29:29;;;;;;;4.60;1.67;;;19.80;62.70;;;;;;5242366;28;20446;-51
2023/09/14 09:32:00;;;;;;;1.73;1.63;;;20.10;62.10;;;;;;5257393;28;20784;-51
2023/09/14 09:34:33;;;;;;;1.10;1.00;;;19.90;61.90;;;;;;5239537;28;20444;-51
2023/09/14 09:37:04;;;;;;;2.60;1.80;;;19.80;62.40;;;;;;5264572;28;20431;-50
2023/09/14 09:39:35;;;;;;;2.00;1.77;;;19.80;62.30;;;;;;5253798;28;20458;-51
2023/09/14 09:42:08;;;;;;;1.47;1.23;;;19.90;61.00;;;;;;5263679;28;20201;-50
2023/09/14 09:44:39;;;;;;;4.23;1.33;;;20.00;61.40;;;;;;5262968;28;20443;-51
2023/09/14 09:47:12;;;;;;;11.47;1.80;;;20.00;61.80;;;;;;5245348;28;20444;-49
2023/09/14 09:49:43;;;;;;;1.60;1.20;;;20.20;61.50;;;;;;5260185;28;21057;-50
2023/09/14 09:52:14;;;;;;;3.47;1.70;;;19.80;60.90;;;;;;5260688;28;21601;-49
2023/09/14 09:54:45;;;;;;;4.70;2.07;;;19.50;61.40;;;;;;5260313;28;20858;-50
2023/09/14 09:57:16;;;;;;;2.50;1.67;;;19.20;62.30;;;;;;5260758;28;20186;-51
2023/09/14 09:59:52;;;;;;;3.53;1.77;;;19.20;63.70;;;;;;5259033;28;20463;-50
2023/09/14 10:02:31;;;;;;;3.17;2.07;;;19.40;63.70;;;;;;5263004;28;20569;-50
2023/09/14 10:05:02;;;;;;;4.50;1.90;;;19.40;63.90;;;;;;5226466;28;20436;-50
2023/09/14 10:07:38;;;;;;;4.83;1.70;;;19.60;63.60;;;;;;5243869;28;20435;-50
2023/09/14 10:10:12;;;;;;;1.40;1.30;;;19.60;63.20;;;;;;5242908;28;20277;-49
2023/09/14 10:12:43;;;;;;;4.97;2.47;;;19.80;62.70;;;;;;5244017;28;20466;-49
2023/09/14 10:15:16;;;;;;;1.50;1.40;;;20.00;62.70;;;;;;5237848;28;20524;-50
2023/09/14 10:17:55;;;;;;;2.07;1.73;;;20.30;61.60;;;;;;5244229;28;20664;-49
2023/09/14 10:20:28;;;;;;;1.67;1.57;;;20.60;60.30;;;;;;5260329;28;20821;-49
2023/09/14 10:23:00;;;;;;;2.27;1.03;;;20.70;60.40;;;;;;5244719;28;20447;-50
2023/09/14 10:25:31;;;;;;;4.03;3.53;;;21.00;60.00;;;;;;5240814;28;20531;-51
2023/09/14 10:28:03;;;;;;;2.57;2.37;;;21.20;59.90;;;;;;5244808;28;21009;-49
2023/09/14 10:30:35;;;;;;;7.43;3.50;;;21.30;58.80;;;;;;5228162;28;20435;-50
2023/09/14 10:33:07;;;;;;;2.30;2.10;;;21.70;58.20;;;;;;5246026;28;21011;-50
2023/09/14 10:35:40;;;;;;;19.77;7.03;;;21.60;58.00;;;;;;5259922;28;20533;-50
2023/09/14 10:38:12;;;;;;;2.17;1.80;;;21.50;57.40;;;;;;5263310;28;20526;-50
2023/09/14 10:40:43;;;;;;;2.23;1.57;;;21.40;58.00;;;;;;5244141;28;20471;-50
2023/09/14 10:43:14;;;;;;;2.73;2.53;;;21.20;57.40;;;;;;5261349;28;20456;-50
2023/09/14 10:45:48;;;;;;;4.60;1.57;;;21.10;57.80;;;;;;5262079;28;20558;-50
2023/09/14 10:48:21;;;;;;;4.30;1.30;;;20.70;57.30;;;;;;5242655;28;20178;-51
2023/09/14 10:50:56;;;;;;;1.73;1.37;;;20.40;58.60;;;;;;5260451;28;20427;-50
2023/09/14 10:53:28;;;;;;;2.40;1.70;;;20.20;58.90;;;;;;5234438;28;21017;-52
2023/09/14 10:56:02;;;;;;;1.60;1.07;;;20.00;59.10;;;;;;5240880;28;20439;-49
2023/09/14 10:58:41;;;;;;;2.43;1.67;;;19.80;58.80;;;;;;5224650;28;20440;-50
2023/09/14 11:01:12;;;;;;;1.60;1.47;;;19.80;59.50;;;;;;5241242;28;20525;-48
2023/09/14 11:04:09;;;;;;;1.60;1.50;;;19.70;59.90;;;;;;5259876;28;20428;-48
2023/09/14 11:06:40;;;;;;;1.43;1.33;;;19.70;59.30;;;;;;5239769;28;20455;-49
2023/09/14 11:09:23;;;;;;;4.97;2.00;;;19.60;59.20;;;;;;5242598;28;20484;-50
2023/09/14 11:11:54;;;;;;;1.60;1.60;;;19.70;59.20;;;;;;5242626;28;20515;-49
2023/09/14 11:14:28;;;;;;;2.50;2.17;;;19.70;60.40;;;;;;5242578;28;20443;-50
2023/09/14 11:17:00;;;;;;;6.10;1.67;;;19.50;60.20;;;;;;5263203;28;20427;-49
2023/09/14 11:19:34;;;;;;;3.20;1.47;;;19.30;61.40;;;;;;5262462;28;20463;-49
2023/09/14 11:22:15;;;;;;;6.00;1.50;;;19.30;61.60;;;;;;5259963;28;20451;-49
2023/09/14 11:24:46;;;;;;;2.07;0.90;;;19.10;58.60;;;;;;5242402;28;20424;-48
2023/09/14 11:27:20;;;;;;;1.93;1.70;;;19.10;59.50;;;;;;5238998;28;20917;-49
2023/09/14 11:29:52;;;;;;;9.33;1.77;;;19.00;58.90;;;;;;5261751;28;20440;-51
2023/09/14 11:32:26;;;;;;;3.10;2.60;;;19.00;59.80;;;;;;5259215;28;20464;-49
2023/09/14 11:34:58;;;;;;;2.63;2.17;;;19.00;59.80;;;;;;5260100;28;20435;-48
2023/09/14 11:37:30;;;;;;;6.83;1.90;;;19.00;60.00;;;;;;5260657;28;20440;-49
2023/09/14 11:40:10;;;;;;;5.10;3.20;;;19.00;60.20;;;;;;5262178;28;20595;-49
2023/09/14 11:43:28;;;;;;;3.70;2.13;;;19.00;60.50;;;;;;5261643;28;20516;-49
2023/09/14 11:45:58;;;;;;;1.30;1.20;;;18.90;61.00;;;;;;5260128;28;20515;-51
2023/09/14 11:48:34;;;;;;;2.00;1.90;;;19.00;61.10;;;;;;5240414;28;20442;-51
2023/09/14 11:51:04;;;;;;;2.73;1.50;;;19.00;60.40;;;;;;5261098;28;20419;-49
2023/09/14 11:53:35;;;;;;;2.00;1.90;;;19.10;61.30;;;;;;5244788;28;20531;-50
2023/09/14 11:56:09;;;;;;;2.43;2.07;;;19.10;60.50;;;;;;5258166;28;20182;-49
2023/09/14 11:58:41;;;;;;;1.43;1.43;;;19.00;60.50;;;;;;5254247;28;20658;-51
2023/09/14 12:01:12;;;;;;;4.13;1.57;;;18.90;59.70;;;;;;5258268;28;20472;-50
2023/09/14 12:03:43;;;;;;;3.00;1.63;;;18.80;59.80;;;;;;5243496;28;20518;-49
2023/09/14 12:06:14;;;;;;;1.10;1.10;;;18.90;59.40;;;;;;5261748;28;20526;-49
2023/09/14 12:08:49;;;;;;;1.47;1.37;;;19.00;58.50;;;;;;5242273;28;20426;-49
2023/09/14 12:11:22;;;;;;;3.53;1.43;;;19.00;58.40;;;;;;5256160;28;20459;-50
2023/09/14 12:13:55;;;;;;;3.23;1.93;;;19.00;58.70;;;;;;5256388;28;20438;-50
2023/09/14 12:16:27;;;;;;;3.73;3.40;;;18.90;58.50;;;;;;5239753;28;20445;-49
2023/09/14 12:18:58;;;;;;;3.90;1.67;;;19.00;58.80;;;;;;5240866;28;20436;-51
2023/09/14 12:21:29;;;;;;;9.73;1.37;;;19.20;58.40;;;;;;5258633;28;20517;-50
2023/09/14 12:24:00;;;;;;;1.90;1.80;;;19.30;57.60;;;;;;5241571;28;20170;-49
2023/09/14 12:26:32;;;;;;;1.97;1.83;;;19.50;57.70;;;;;;5240392;28;20254;-49
2023/09/14 12:29:03;;;;;;;2.40;1.80;;;19.70;57.00;;;;;;5255345;28;20437;-51
2023/09/14 12:31:37;;;;;;;1.27;1.17;;;19.70;57.00;;;;;;5244886;28;20455;-49
2023/09/14 12:34:08;;;;;;;1.30;1.30;;;19.80;56.70;;;;;;5224926;28;20739;-48
2023/09/14 12:36:42;;;;;;;0.77;0.70;;;19.80;56.90;;;;;;5242010;28;20444;-48
2023/09/14 12:39:13;;;;;;;4.50;2.13;;;19.70;56.30;;;;;;5243842;28;20435;-49
2023/09/14 12:41:45;;;;;;;2.43;1.23;;;19.70;55.40;;;;;;5257244;28;21083;-48
2023/09/14 12:44:18;;;;;;;1.80;1.70;;;19.60;55.70;;;;;;5260805;28;20189;-49
2023/09/14 12:46:52;;;;;;;7.67;1.20;;;19.70;56.70;;;;;;5246335;28;20488;-48
2023/09/14 12:49:23;;;;;;;2.40;1.50;;;19.70;56.40;;;;;;5242706;28;20554;-48
2023/09/14 12:51:54;;;;;;;2.13;1.70;;;19.80;55.60;;;;;;5257210;28;20469;-49
2023/09/14 12:54:25;;;;;;;3.13;1.87;;;19.70;56.40;;;;;;5241174;28;20436;-49
2023/09/14 12:56:56;;;;;;;4.40;1.83;;;19.60;57.00;;;;;;5257753;28;20590;-48
2023/09/14 12:59:27;;;;;;;3.60;1.80;;;19.60;57.10;;;;;;5251694;28;20474;-49
2023/09/14 13:01:57;;;;;;;1.37;1.27;;;19.70;57.40;;;;;;5251763;28;20288;-49
2023/09/14 13:04:35;;;;;;;13.27;2.50;;;19.80;57.30;;;;;;5242031;28;20190;-51
2023/09/14 13:07:15;;;;;;;5.37;2.10;;;19.70;57.40;;;;;;5259058;28;20175;-49
2023/09/14 13:09:46;;;;;;;3.00;2.13;;;19.80;57.70;;;;;;5258197;28;20435;-49
2023/09/14 13:12:26;;;;;;;2.40;1.40;;;19.80;57.80;;;;;;5244605;28;20972;-50